Time;durP1;ratioP1;P1;durP2;ratioP2;P2;SDS_P1;SDS_P2;PMS_P1;PMS_P2;Temp;Humidity;BMP_temperature;BMP_pressure;BME280_temperature;BME280_humidity;BME280_pressure;Samples;Min_cycle;Max_cycle;Signal;HPM_P1;HPM_P2
2024/03/10 00:01:21;;;;;;;21.98;12.93;;;;;;;8.61;100.00;99813.38;6091227;19;20014;-80
2024/03/10 00:03:26;;;;;;;23.33;11.40;;;;;;;8.51;100.00;99797.25;6087996;19;20478;-78
2024/03/10 00:05:34;;;;;;;24.67;12.05;;;;;;;8.50;100.00;99802.56;6092519;19;20007;-79
2024/03/10 00:07:39;;;;;;;24.25;12.57;;;;;;;8.42;100.00;99830.88;6091899;19;20093;-78
2024/03/10 00:09:45;;;;;;;23.30;12.05;;;;;;;8.44;100.00;99845.59;6092845;19;20069;-78
2024/03/10 00:11:50;;;;;;;27.33;12.27;;;;;;;8.43;100.00;99848.31;6089597;19;20007;-74
2024/03/10 00:13:57;;;;;;;21.25;11.48;;;;;;;8.38;100.00;99840.63;6091995;19;20018;-76
2024/03/10 00:16:02;;;;;;;26.20;12.23;;;;;;;8.31;100.00;99834.81;6090468;19;20014;-74
2024/03/10 00:18:08;;;;;;;26.33;12.32;;;;;;;8.31;100.00;99834.81;6090723;19;20014;-74
2024/03/10 00:20:14;;;;;;;22.30;12.55;;;;;;;8.32;100.00;99827.81;6090820;19;20519;-75
2024/03/10 00:22:22;;;;;;;22.77;11.40;;;;;;;8.24;100.00;99832.56;6090566;19;20030;-74
2024/03/10 00:24:27;;;;;;;26.63;11.90;;;;;;;8.18;100.00;99818.00;6089000;19;20472;-77
2024/03/10 00:26:33;;;;;;;25.95;11.80;;;;;;;8.19;100.00;99817.09;6089445;19;20015;-75
2024/03/10 00:28:37;;;;;;;25.15;11.15;;;;;;;8.18;100.00;99802.28;6084494;19;20083;-77
2024/03/10 00:30:47;;;;;;;22.02;11.50;;;;;;;8.17;100.00;99790.16;6092112;19;20034;-78
2024/03/10 00:32:52;;;;;;;21.40;11.93;;;;;;;8.13;100.00;99786.81;6090194;19;20138;-78
2024/03/10 00:34:56;;;;;;;21.02;10.88;;;;;;;8.12;100.00;99763.34;6086764;19;25330;-78
2024/03/10 00:37:01;;;;;;;23.30;10.50;;;;;;;8.16;100.00;99766.66;6090986;19;20613;-78
2024/03/10 00:39:10;;;;;;;25.58;12.38;;;;;;;8.14;100.00;99792.91;6089966;19;20191;-75
2024/03/10 00:41:15;;;;;;;24.85;11.93;;;;;;;8.17;100.00;99807.63;6087432;19;20015;-75
2024/03/10 00:43:21;;;;;;;26.83;11.48;;;;;;;8.15;100.00;99818.16;6087360;19;20006;-75
2024/03/10 00:45:29;;;;;;;22.08;10.73;;;;;;;8.12;100.00;99829.59;6088481;19;20022;-75
2024/03/10 00:47:37;;;;;;;31.80;12.00;;;;;;;8.16;100.00;99834.69;6088198;19;20018;-75
2024/03/10 00:49:42;;;;;;;21.85;10.63;;;;;;;8.14;100.00;99837.41;6085791;19;20354;-74
2024/03/10 00:51:48;;;;;;;23.52;11.65;;;;;;;8.09;100.00;99839.38;6087981;19;20002;-75
2024/03/10 00:53:53;;;;;;;23.60;11.15;;;;;;;8.05;100.00;99837.81;6083308;19;20019;-74
2024/03/10 00:56:00;;;;;;;28.95;11.52;;;;;;;8.12;100.00;99839.22;6088510;19;20003;-77
2024/03/10 00:58:06;;;;;;;24.98;12.43;;;;;;;8.06;100.00;99834.28;6088903;19;19999;-74
2024/03/10 01:00:12;;;;;;;25.20;10.52;;;;;;;8.09;100.00;99836.75;6086447;19;20340;-76
2024/03/10 01:02:17;;;;;;;24.58;13.07;;;;;;;8.09;100.00;99834.13;6088194;19;20013;-74
2024/03/10 01:04:19;;;;;;;21.63;11.20;;;;;;;8.09;100.00;99828.91;6088257;19;20011;-75
2024/03/10 01:06:25;;;;;;;26.48;11.27;;;;;;;8.04;100.00;99828.28;6088684;19;20475;-74
2024/03/10 01:08:27;;;;;;;22.02;10.60;;;;;;;7.97;100.00;99827.69;6086079;19;20515;-75
2024/03/10 01:10:33;;;;;;;23.25;11.32;;;;;;;7.97;100.00;99825.06;6087315;19;20010;-76
2024/03/10 01:12:42;;;;;;;24.05;11.38;;;;;;;8.00;100.00;99808.38;6081999;19;20038;-75
2024/03/10 01:14:47;;;;;;;23.77;10.57;;;;;;;8.02;100.00;99811.78;6088411;19;20038;-76
2024/03/10 01:16:52;;;;;;;25.88;11.13;;;;;;;7.99;100.00;99806.69;6089301;19;20334;-75
2024/03/10 01:18:59;;;;;;;22.38;10.82;;;;;;;7.93;100.00;99802.59;6087779;19;19995;-74
2024/03/10 01:21:05;;;;;;;22.05;10.30;;;;;;;7.95;100.00;99792.91;6088997;19;20039;-74
2024/03/10 01:23:10;;;;;;;23.65;11.18;;;;;;;7.95;100.00;99781.59;6090140;19;20017;-75
2024/03/10 01:25:15;;;;;;;18.75;11.50;;;;;;;7.94;100.00;99765.06;6089577;19;20486;-76
2024/03/10 01:27:21;;;;;;;21.88;10.77;;;;;;;7.94;100.00;99772.06;6088917;19;20302;-76
2024/03/10 01:29:31;;;;;;;26.92;11.27;;;;;;;7.96;100.00;99783.31;6085975;19;20006;-74
2024/03/10 01:31:36;;;;;;;20.80;10.90;;;;;;;7.91;100.00;99770.44;6088341;19;20051;-74
2024/03/10 01:33:41;;;;;;;22.63;10.82;;;;;;;7.93;100.00;99765.16;6086197;19;20010;-74
2024/03/10 01:35:48;;;;;;;22.58;11.20;;;;;;;7.94;100.00;99766.81;6087530;19;20471;-75
2024/03/10 01:37:53;;;;;;;24.85;12.05;;;;;;;7.97;100.00;99756.22;6086183;19;20506;-74
2024/03/10 01:40:05;;;;;;;18.88;10.07;;;;;;;7.96;100.00;99750.13;6087577;19;20006;-76
2024/03/10 01:42:10;;;;;;;23.40;10.50;;;;;;;7.95;100.00;99760.66;6086196;19;20296;-76
2024/03/10 01:44:13;;;;;;;22.25;10.18;;;;;;;7.97;100.00;99766.69;6080152;19;20007;-76
2024/03/10 01:46:22;;;;;;;19.00;9.80;;;;;;;7.96;100.00;99762.38;6082648;19;20011;-74
2024/03/10 01:48:27;;;;;;;21.92;11.20;;;;;;;8.01;100.00;99753.38;6085571;19;20031;-79
2024/03/10 01:50:32;;;;;;;18.83;10.07;;;;;;;7.98;100.00;99755.28;6088523;19;20395;-79
2024/03/10 01:52:35;;;;;;;21.90;10.63;;;;;;;7.97;100.00;99764.06;6089011;19;20010;-79
2024/03/10 01:54:41;;;;;;;16.25;9.32;;;;;;;7.99;100.00;99762.22;6091267;19;20089;-78
2024/03/10 01:56:46;;;;;;;21.90;10.93;;;;;;;8.01;100.00;99763.00;6083253;19;20021;-77
2024/03/10 01:58:54;;;;;;;20.80;10.60;;;;;;;8.00;100.00;99769.16;6086662;19;20312;-77
2024/03/10 02:01:03;;;;;;;27.00;11.07;;;;;;;8.00;100.00;99771.75;6087488;19;20038;-78
2024/03/10 02:03:12;;;;;;;23.20;11.23;;;;;;;7.96;100.00;99765.84;6088213;19;20011;-78
2024/03/10 02:05:19;;;;;;;23.95;11.15;;;;;;;8.00;100.00;99769.16;6086044;19;20102;-78
2024/03/10 02:07:22;;;;;;;19.55;10.48;;;;;;;7.98;100.00;99760.50;6088799;19;20018;-78
2024/03/10 02:09:27;;;;;;;20.75;10.65;;;;;;;8.00;100.00;99763.91;6079377;19;20024;-78
2024/03/10 02:11:32;;;;;;;19.58;10.63;;;;;;;8.02;100.00;99754.22;6085914;19;20047;-75
2024/03/10 02:13:38;;;;;;;17.15;9.05;;;;;;;8.00;100.00;99751.69;6087253;19;20017;-75
2024/03/10 02:15:40;;;;;;;24.40;10.68;;;;;;;8.02;100.00;99752.47;6087054;19;20420;-75
2024/03/10 02:17:45;;;;;;;23.27;10.27;;;;;;;8.00;100.00;99756.06;6087276;19;20031;-75
2024/03/10 02:19:53;;;;;;;21.70;11.00;;;;;;;8.01;100.00;99748.16;6086801;19;20079;-73
2024/03/10 02:21:59;;;;;;;23.00;11.32;;;;;;;8.03;100.00;99750.69;6086366;19;20333;-76
2024/03/10 02:24:11;;;;;;;19.90;10.65;;;;;;;7.98;100.00;99745.69;6087467;19;20094;-75
2024/03/10 02:26:21;;;;;;;23.00;11.23;;;;;;;7.99;100.00;99738.69;6087264;19;20011;-75
2024/03/10 02:28:34;;;;;;;22.13;10.77;;;;;;;7.97;100.00;99730.06;5939425;19;2855865;-75
2024/03/10 02:30:43;;;;;;;23.23;10.18;;;;;;;7.94;100.00;99725.81;6087437;19;20011;-74
2024/03/10 02:49:10;;;;;;;18.80;9.88;;;;;;;7.99;100.00;99718.59;5983353;19;2004640;-75
2024/03/10 02:51:15;;;;;;;21.00;11.00;;;;;;;8.00;100.00;99714.22;6084669;19;20533;-75
2024/03/10 02:53:20;;;;;;;20.80;9.93;;;;;;;7.99;100.00;99717.75;6081496;19;20035;-75
2024/03/10 02:55:26;;;;;;;21.08;10.70;;;;;;;7.99;100.00;99718.59;6084055;19;20742;-75
2024/03/10 02:57:34;;;;;;;21.17;10.18;;;;;;;7.98;100.00;99714.31;6084759;19;20022;-75
2024/03/10 02:59:39;;;;;;;22.42;10.75;;;;;;;7.97;100.00;99720.44;6085911;19;20577;-75
2024/03/10 03:01:41;;;;;;;17.92;10.23;;;;;;;7.94;100.00;99724.97;6084889;19;20564;-78
2024/03/10 03:03:46;;;;;;;20.23;11.07;;;;;;;7.91;100.00;99729.44;6084780;19;20011;-78
2024/03/10 03:05:53;;;;;;;21.77;10.90;;;;;;;7.93;100.00;99725.91;6086422;19;20003;-78
2024/03/10 03:08:03;;;;;;;22.08;11.00;;;;;;;7.95;100.00;99729.28;6085744;19;20027;-78
2024/03/10 03:10:10;;;;;;;21.80;11.25;;;;;;;7.95;100.00;99724.88;6086326;19;20013;-78
2024/03/10 03:12:16;;;;;;;23.75;9.82;;;;;;;7.91;100.00;99711.13;6085981;19;20002;-74
2024/03/10 03:14:25;;;;;;;23.20;11.18;;;;;;;7.86;100.00;99702.63;6084769;19;20014;-76
2024/03/10 03:16:32;;;;;;;20.25;10.30;;;;;;;7.89;100.00;99707.72;6085996;19;20010;-76
2024/03/10 03:18:40;;;;;;;21.60;9.93;;;;;;;7.89;100.00;99699.03;6083893;19;20003;-75
2024/03/10 03:20:45;;;;;;;19.77;10.25;;;;;;;7.91;100.00;99694.56;6087147;19;20027;-77
2024/03/10 03:22:51;;;;;;;18.38;9.65;;;;;;;7.86;100.00;99700.03;6086578;19;20386;-78
2024/03/10 03:24:56;;;;;;;23.25;10.43;;;;;;;7.84;100.00;99691.38;6087101;19;20057;-77
2024/03/10 03:27:02;;;;;;;21.23;10.70;;;;;;;7.81;100.00;99681.09;6085025;19;20083;-77
2024/03/10 03:29:09;;;;;;;24.05;10.70;;;;;;;7.84;100.00;99687.94;6084724;19;20074;-78
2024/03/10 03:31:16;;;;;;;21.20;10.55;;;;;;;7.80;100.00;99687.25;6083524;19;20046;-75
2024/03/10 03:33:21;;;;;;;19.35;11.02;;;;;;;7.83;100.00;99687.09;6083810;19;20690;-74
2024/03/10 03:35:27;;;;;;;23.35;10.88;;;;;;;7.78;100.00;99694.31;6085332;19;20007;-74
2024/03/10 03:37:32;;;;;;;20.98;10.90;;;;;;;7.78;100.00;99686.47;6086476;19;20021;-78
2024/03/10 03:39:38;;;;;;;22.30;11.27;;;;;;;7.79;100.00;99693.38;6084317;19;20531;-74
2024/03/10 03:41:43;;;;;;;22.52;10.40;;;;;;;7.76;100.00;99684.84;6084626;19;20462;-75
2024/03/10 03:43:49;;;;;;;25.48;11.10;;;;;;;7.76;100.00;99679.63;6083940;19;20014;-75
2024/03/10 03:45:55;;;;;;;21.65;10.63;;;;;;;7.72;100.00;99681.53;6082720;19;20034;-75
2024/03/10 03:48:04;;;;;;;20.92;9.57;;;;;;;7.73;100.00;99691.06;6084946;19;20007;-76
2024/03/10 03:50:10;;;;;;;22.63;10.18;;;;;;;7.75;100.00;99688.38;6085311;19;20003;-77
2024/03/10 03:52:13;;;;;;;20.10;10.27;;;;;;;7.79;100.00;99689.91;6084917;19;20009;-78
2024/03/10 03:54:19;;;;;;;23.27;11.38;;;;;;;7.74;100.00;99687.53;6080968;19;20012;-77
2024/03/10 03:56:24;;;;;;;25.45;12.15;;;;;;;7.70;100.00;99685.97;6084083;19;20449;-77
2024/03/10 03:58:29;;;;;;;23.90;11.07;;;;;;;7.72;100.00;99688.53;6084440;19;20082;-78
2024/03/10 04:00:32;;;;;;;20.70;9.23;;;;;;;7.71;100.00;99687.66;6083431;19;20455;-74
2024/03/10 04:02:37;;;;;;;22.38;10.05;;;;;;;7.76;100.00;99688.28;6083111;19;20463;-77
2024/03/10 04:04:45;;;;;;;22.27;10.48;;;;;;;7.73;100.00;99685.84;6084781;19;20057;-77
2024/03/10 04:06:50;;;;;;;21.40;10.95;;;;;;;7.75;100.00;99686.63;6084298;19;20492;-74
2024/03/10 04:08:56;;;;;;;22.52;10.70;;;;;;;7.71;100.00;99685.06;6085358;19;20011;-74
2024/03/10 04:10:59;;;;;;;22.65;11.43;;;;;;;7.67;100.00;99686.97;6090726;19;20086;-74
2024/03/10 04:13:05;;;;;;;21.02;10.93;;;;;;;7.68;100.00;99679.97;6091432;19;20007;-73
2024/03/10 04:15:11;;;;;;;18.80;10.82;;;;;;;7.63;100.00;99680.19;6091622;19;20034;-74
2024/03/10 04:17:16;;;;;;;20.08;10.32;;;;;;;7.58;100.00;99676.09;6083441;19;20002;-74
2024/03/10 04:19:21;;;;;;;23.60;11.57;;;;;;;7.52;100.00;99671.16;6091798;19;20014;-74
2024/03/10 04:21:33;;;;;;;25.17;11.18;;;;;;;7.53;100.00;99675.44;6088292;19;20033;-74
2024/03/10 04:23:38;;;;;;;26.75;11.40;;;;;;;7.53;100.00;99670.22;6089380;19;20103;-74
2024/03/10 04:25:43;;;;;;;22.30;11.63;;;;;;;7.52;100.00;99666.78;6091933;19;20026;-74
2024/03/10 04:27:48;;;;;;;20.75;11.07;;;;;;;7.50;100.00;99673.00;6090868;19;20014;-74
2024/03/10 04:29:55;;;;;;;23.00;11.55;;;;;;;7.46;100.00;99667.91;6091981;19;20343;-77
2024/03/10 04:32:00;;;;;;;24.50;11.77;;;;;;;7.46;100.00;99661.84;6094392;19;20013;-78
2024/03/10 04:34:05;;;;;;;24.10;12.85;;;;;;;7.40;100.00;99664.75;6093359;19;20010;-78
2024/03/10 04:36:11;;;;;;;24.98;12.63;;;;;;;7.36;100.00;99671.88;6093897;19;20003;-78
2024/03/10 04:38:21;;;;;;;23.63;12.00;;;;;;;7.37;100.00;99673.56;6093864;19;20885;-77
2024/03/10 04:40:24;;;;;;;24.92;12.00;;;;;;;7.36;100.00;99676.25;6093769;19;20022;-78
2024/03/10 04:42:30;;;;;;;27.88;13.50;;;;;;;7.33;100.00;99677.22;6093356;19;19998;-77
2024/03/10 04:44:39;;;;;;;27.60;12.85;;;;;;;7.31;100.00;99679.06;6094435;19;20022;-80
2024/03/10 04:46:42;;;;;;;26.60;12.93;;;;;;;7.38;100.00;99672.66;6092395;19;20010;-78
2024/03/10 04:48:46;;;;;;;25.27;12.98;;;;;;;7.35;100.00;99678.03;6091439;19;20010;-77
2024/03/10 04:50:52;;;;;;;24.05;11.88;;;;;;;7.34;100.00;99678.06;6088351;19;20003;-77
2024/03/10 04:52:57;;;;;;;23.88;12.43;;;;;;;7.31;100.00;99683.44;6087457;19;20011;-77
2024/03/10 04:55:04;;;;;;;22.73;11.18;;;;;;;7.30;100.00;99677.38;6091010;19;20021;-77
2024/03/10 04:57:09;;;;;;;25.52;12.50;;;;;;;7.28;100.00;99676.59;6088810;19;20006;-78
2024/03/10 04:59:14;;;;;;;29.13;14.98;;;;;;;7.37;100.00;99681.41;6090410;19;20002;-77
2024/03/10 05:01:19;;;;;;;32.15;13.57;;;;;;;7.30;100.00;99674.75;6085584;19;20010;-76
2024/03/10 05:03:24;;;;;;;30.35;13.52;;;;;;;7.31;100.00;99665.16;6089353;19;20007;-77
2024/03/10 05:05:29;;;;;;;27.30;13.05;;;;;;;7.31;100.00;99671.22;6089703;19;20035;-78
2024/03/10 05:07:39;;;;;;;23.48;11.80;;;;;;;7.32;100.00;99675.56;6087631;19;20398;-78
2024/03/10 05:09:44;;;;;;;24.40;11.98;;;;;;;7.35;100.00;99674.56;6088748;19;20086;-77
2024/03/10 05:11:51;;;;;;;21.67;11.50;;;;;;;7.33;100.00;99665.94;6087269;19;20601;-78
2024/03/10 05:13:57;;;;;;;23.13;12.13;;;;;;;7.34;100.00;99667.63;6086479;19;20105;-77
2024/03/10 05:16:02;;;;;;;26.77;12.23;;;;;;;7.26;100.00;99662.75;6086920;19;20673;-77
2024/03/10 05:18:05;;;;;;;20.98;11.20;;;;;;;7.23;100.00;99662.88;6087835;19;20401;-78
2024/03/10 05:20:11;;;;;;;26.20;11.35;;;;;;;7.22;100.00;99664.66;6085172;19;20006;-77
2024/03/10 05:22:16;;;;;;;25.48;13.75;;;;;;;7.18;100.00;99663.09;6085384;19;20015;-77
2024/03/10 05:24:19;;;;;;;24.50;12.80;;;;;;;7.12;100.00;99652.09;6086634;19;20006;-77
2024/03/10 05:26:23;;;;;;;29.55;14.38;;;;;;;7.06;100.00;99650.59;6086490;19;20010;-78
2024/03/10 05:28:32;;;;;;;24.40;12.82;;;;;;;7.08;100.00;99645.28;6088291;19;20659;-78
2024/03/10 05:30:37;;;;;;;32.25;13.90;;;;;;;7.02;100.00;99641.19;6088415;19;19998;-77
2024/03/10 05:32:42;;;;;;;29.42;13.43;;;;;;;7.00;100.00;99646.50;6088119;19;20415;-80
2024/03/10 05:34:47;;;;;;;24.58;12.77;;;;;;;6.91;100.00;99654.75;6089114;19;20006;-78
2024/03/10 05:36:52;;;;;;;29.30;13.23;;;;;;;6.84;100.00;99642.84;6089494;19;20031;-79
2024/03/10 05:38:54;;;;;;;33.75;14.07;;;;;;;6.86;100.00;99648.88;6089068;19;20003;-80
2024/03/10 05:40:59;;;;;;;27.45;14.23;;;;;;;6.77;100.00;99650.13;6088602;19;20010;-74
2024/03/10 05:43:04;;;;;;;31.67;13.32;;;;;;;6.78;100.00;99645.75;6089468;19;20020;-78
2024/03/10 05:45:12;;;;;;;33.05;15.07;;;;;;;6.68;100.00;99657.50;6089167;19;20082;-75
2024/03/10 05:47:17;;;;;;;28.13;13.65;;;;;;;6.64;100.00;99661.19;6087658;19;20090;-75
2024/03/10 05:49:23;;;;;;;26.33;13.95;;;;;;;6.65;100.00;99668.09;6087568;19;20467;-75
2024/03/10 05:51:28;;;;;;;31.08;13.57;;;;;;;6.60;100.00;99660.44;6086283;19;20553;-75
2024/03/10 05:53:33;;;;;;;28.23;13.63;;;;;;;6.56;100.00;99658.91;6085569;19;20026;-74
2024/03/10 05:55:38;;;;;;;24.27;13.10;;;;;;;6.52;100.00;99652.09;6089407;19;20006;-78
2024/03/10 05:57:43;;;;;;;30.30;14.77;;;;;;;6.52;100.00;99650.34;6086179;19;20023;-78
2024/03/10 05:59:48;;;;;;;28.85;14.10;;;;;;;6.55;100.00;99655.41;6087572;19;20922;-78
2024/03/10 06:01:53;;;;;;;30.05;13.32;;;;;;;6.54;100.00;99653.72;6088839;19;20517;-77
2024/03/10 06:04:01;;;;;;;30.65;14.10;;;;;;;6.50;100.00;99662.63;6085768;19;20002;-79
2024/03/10 06:06:08;;;;;;;24.55;13.65;;;;;;;6.47;100.00;99657.50;6085957;19;20750;-78
2024/03/10 06:08:13;;;;;;;29.98;14.65;;;;;;;6.43;100.00;99655.97;6086971;19;20073;-79
2024/03/10 06:10:21;;;;;;;28.90;15.75;;;;;;;6.40;100.00;99648.28;6087084;19;20014;-78
2024/03/10 06:12:26;;;;;;;28.30;14.30;;;;;;;6.43;100.00;99642.06;6084475;19;20010;-78
2024/03/10 06:14:31;;;;;;;31.13;14.98;;;;;;;6.38;100.00;99642.25;6084067;19;20605;-78
2024/03/10 06:16:37;;;;;;;26.63;13.55;;;;;;;6.40;100.00;99648.28;6086601;19;20541;-78
2024/03/10 06:25:53;;;;;;;28.73;14.52;;;;;;;6.29;100.00;99655.69;5982748;19;2004692;-74
2024/03/10 06:28:00;;;;;;;28.95;12.55;;;;;;;6.20;100.00;99658.69;6087403;19;20018;-74
2024/03/10 06:30:06;;;;;;;31.33;14.75;;;;;;;6.19;100.00;99660.44;6085639;19;20095;-74
2024/03/10 06:32:11;;;;;;;27.80;15.77;;;;;;;6.20;100.00;99669.97;6083251;19;20095;-75
2024/03/10 06:34:19;;;;;;;26.65;14.30;;;;;;;6.19;100.00;99673.50;6087262;19;20054;-78
2024/03/10 06:36:27;;;;;;;24.17;12.82;;;;;;;6.21;100.00;99673.41;6086794;19;20010;-78
2024/03/10 06:38:32;;;;;;;30.45;14.18;;;;;;;6.13;100.00;99679.81;6085180;19;20014;-74
2024/03/10 06:40:37;;;;;;;27.70;13.65;;;;;;;6.25;100.00;99677.59;6085531;19;20408;-75
2024/03/10 06:42:44;;;;;;;27.88;13.60;;;;;;;6.27;100.00;99673.19;6085416;19;20358;-74
2024/03/10 06:44:49;;;;;;;28.77;13.20;;;;;;;6.25;100.00;99680.22;6084958;19;20428;-77
2024/03/10 06:46:54;;;;;;;25.80;13.55;;;;;;;6.21;100.00;99682.06;6085908;19;20070;-74
2024/03/10 06:48:57;;;;;;;31.30;13.85;;;;;;;6.27;100.00;99681.84;6086169;19;20419;-74
2024/03/10 06:51:05;;;;;;;30.30;12.68;;;;;;;6.18;100.00;99678.75;6087740;19;20052;-77
2024/03/10 06:53:11;;;;;;;24.40;11.65;;;;;;;6.23;100.00;99684.63;6083714;19;20006;-78
2024/03/10 06:55:17;;;;;;;26.25;13.98;;;;;;;6.28;100.00;99674.88;6084597;19;20023;-77
2024/03/10 06:57:22;;;;;;;32.10;13.90;;;;;;;6.34;100.00;99687.63;6086679;19;20003;-75
2024/03/10 06:59:29;;;;;;;30.88;15.38;;;;;;;6.29;100.00;99676.53;6085745;19;20104;-75
2024/03/10 07:01:34;;;;;;;26.80;12.93;;;;;;;6.33;100.00;99680.75;6088015;19;20011;-77
2024/03/10 07:03:39;;;;;;;31.27;14.30;;;;;;;6.28;100.00;99685.31;6087341;19;20509;-77
2024/03/10 07:05:44;;;;;;;28.83;13.00;;;;;;;6.33;100.00;99678.13;6089856;19;20682;-77
2024/03/10 07:07:52;;;;;;;29.27;13.70;;;;;;;6.33;100.00;99672.91;6088344;19;20006;-75
2024/03/10 07:09:58;;;;;;;28.55;13.85;;;;;;;6.37;100.00;99672.72;6090836;19;20041;-78
2024/03/10 07:12:06;;;;;;;27.25;13.80;;;;;;;6.35;100.00;99676.31;6091290;19;20038;-77
2024/03/10 07:14:12;;;;;;;29.33;14.13;;;;;;;6.40;100.00;99674.38;6090320;19;20016;-74
2024/03/10 07:16:17;;;;;;;33.63;14.65;;;;;;;6.44;100.00;99675.91;6085624;19;20015;-75
2024/03/10 07:18:23;;;;;;;23.08;13.60;;;;;;;6.47;100.00;99682.75;6087885;19;20478;-78
2024/03/10 07:20:29;;;;;;;26.52;13.13;;;;;;;6.54;100.00;99690.28;6087952;19;20095;-78
2024/03/10 07:22:32;;;;;;;25.40;13.48;;;;;;;6.60;100.00;99692.63;6086377;19;20011;-77
2024/03/10 07:24:40;;;;;;;25.25;11.65;;;;;;;6.62;100.00;99692.56;6087852;19;20042;-78
2024/03/10 07:26:45;;;;;;;27.38;13.25;;;;;;;6.63;100.00;99701.22;6089196;19;20151;-78
2024/03/10 07:28:50;;;;;;;30.35;11.90;;;;;;;6.68;100.00;99702.72;6085174;19;20021;-77
2024/03/10 07:30:54;;;;;;;27.98;13.45;;;;;;;6.71;100.00;99694.75;6083707;19;20152;-77
2024/03/10 07:32:59;;;;;;;23.90;12.10;;;;;;;6.77;100.00;99694.53;6086597;19;21106;-77
2024/03/10 07:35:05;;;;;;;25.33;12.32;;;;;;;6.76;100.00;99689.34;6084211;19;20006;-77
2024/03/10 07:37:10;;;;;;;27.65;13.55;;;;;;;6.77;100.00;99691.06;6084962;19;20757;-77
2024/03/10 07:39:15;;;;;;;27.02;11.63;;;;;;;6.78;100.00;99695.34;6085323;19;20006;-76
2024/03/10 07:41:23;;;;;;;29.60;14.00;;;;;;;6.79;100.00;99691.81;6085648;19;20031;-76
2024/03/10 07:43:28;;;;;;;24.75;11.88;;;;;;;6.81;100.00;99692.63;6086206;19;20115;-75
2024/03/10 07:45:34;;;;;;;25.58;12.77;;;;;;;6.84;100.00;99694.25;6089615;19;20045;-77
2024/03/10 07:47:41;;;;;;;25.95;13.40;;;;;;;6.88;100.00;99690.59;6091147;19;20007;-76
2024/03/10 07:49:47;;;;;;;25.10;10.93;;;;;;;6.93;100.00;99689.47;6091248;19;20007;-78
2024/03/10 07:51:52;;;;;;;26.98;12.35;;;;;;;6.94;100.00;99683.31;6086948;19;20002;-77
2024/03/10 07:53:57;;;;;;;26.65;11.93;;;;;;;6.98;100.00;99690.13;6085681;19;20058;-79
2024/03/10 07:56:02;;;;;;;25.70;12.07;;;;;;;6.97;100.00;99677.13;6087340;19;20086;-78
2024/03/10 07:58:09;;;;;;;25.35;11.52;;;;;;;7.00;100.00;99682.19;6087994;19;20009;-78
2024/03/10 08:00:16;;;;;;;20.40;11.45;;;;;;;7.04;100.00;99678.56;6089808;19;20018;-79
2024/03/10 08:02:24;;;;;;;21.85;11.18;;;;;;;7.06;100.00;99678.47;6087105;19;20470;-78
2024/03/10 08:04:31;;;;;;;26.95;12.05;;;;;;;7.10;100.00;99677.44;6087110;19;20010;-79
2024/03/10 08:06:37;;;;;;;22.58;11.57;;;;;;;7.10;100.00;99672.19;6090007;19;20026;-76
2024/03/10 08:08:40;;;;;;;24.90;12.07;;;;;;;7.20;100.00;99676.09;6087713;19;20013;-79
2024/03/10 08:10:46;;;;;;;26.92;12.80;;;;;;;7.17;100.00;99671.00;6088739;19;20002;-79
2024/03/10 08:12:52;;;;;;;20.38;10.55;;;;;;;7.20;100.00;99676.09;6087242;19;20014;-78
2024/03/10 08:14:57;;;;;;;22.48;9.82;;;;;;;7.26;100.00;99676.66;6087819;19;20007;-79
2024/03/10 08:17:02;;;;;;;28.58;12.80;;;;;;;7.30;100.00;99672.16;6086774;19;20014;-79
2024/03/10 08:19:07;;;;;;;23.55;11.45;;;;;;;7.29;100.00;99667.81;6090919;19;19998;-78
2024/03/10 08:21:13;;;;;;;26.33;13.57;;;;;;;7.31;100.00;99668.59;6087175;19;20468;-78
2024/03/10 08:23:18;;;;;;;23.83;11.10;;;;;;;7.32;100.00;99670.31;6089647;19;20035;-78
2024/03/10 08:25:21;;;;;;;23.98;12.27;;;;;;;7.39;100.00;99669.09;6088551;19;20018;-76
2024/03/10 08:27:26;;;;;;;22.13;11.95;;;;;;;7.40;100.00;99662.13;6089578;19;20011;-75
2024/03/10 08:29:31;;;;;;;23.88;12.30;;;;;;;7.42;100.00;99665.50;6089605;19;20642;-79
2024/03/10 08:31:41;;;;;;;22.73;11.63;;;;;;;7.50;100.00;99670.38;6089863;19;20007;-79
2024/03/10 08:33:46;;;;;;;23.42;12.07;;;;;;;7.56;100.00;99667.50;6086739;19;20007;-76
2024/03/10 08:35:51;;;;;;;24.50;11.27;;;;;;;7.61;100.00;99665.47;6088518;19;20677;-75
2024/03/10 08:37:59;;;;;;;22.27;11.45;;;;;;;7.62;100.00;99677.66;6088679;19;20730;-76
2024/03/10 08:40:09;;;;;;;29.70;14.02;;;;;;;7.66;100.00;99673.97;6089595;19;20017;-75
2024/03/10 08:42:16;;;;;;;24.80;11.02;;;;;;;7.73;100.00;99682.38;6092172;19;20029;-78
2024/03/10 08:44:22;;;;;;;24.17;12.15;;;;;;;7.80;100.00;99681.16;6087663;19;20023;-78
2024/03/10 08:46:29;;;;;;;23.25;11.57;;;;;;;7.84;100.00;99678.31;6090267;19;20010;-77
2024/03/10 08:48:35;;;;;;;25.13;12.73;;;;;;;7.82;100.00;99674.06;6088278;19;20364;-77
2024/03/10 08:50:40;;;;;;;25.65;12.25;;;;;;;7.92;100.00;99672.72;6088698;19;20015;-78
2024/03/10 08:52:43;;;;;;;22.83;11.68;;;;;;;7.91;100.00;99684.97;6082054;19;20015;-75
2024/03/10 08:54:49;;;;;;;21.25;11.75;;;;;;;7.96;100.00;99689.13;6085635;19;20010;-76
2024/03/10 08:56:54;;;;;;;21.10;12.07;;;;;;;8.00;100.00;99685.44;6089213;19;20021;-74
2024/03/10 08:58:59;;;;;;;31.45;14.10;;;;;;;8.08;100.00;99683.28;6089223;19;20521;-75
2024/03/10 09:01:06;;;;;;;29.13;13.18;;;;;;;8.14;100.00;99688.25;6087959;19;20006;-74
2024/03/10 09:03:11;;;;;;;27.13;12.57;;;;;;;8.13;100.00;99692.59;6087532;19;20097;-74
2024/03/10 09:05:23;;;;;;;24.88;10.80;;;;;;;8.12;100.00;99693.53;6090297;19;20011;-74
2024/03/10 09:07:31;;;;;;;26.35;11.73;;;;;;;8.19;100.00;99688.88;6090495;19;20019;-75
2024/03/10 09:09:36;;;;;;;21.85;11.45;;;;;;;8.21;100.00;99692.22;6090246;19;20014;-74
2024/03/10 09:11:42;;;;;;;23.45;12.68;;;;;;;8.24;100.00;99697.34;6089181;19;20015;-74
2024/03/10 09:13:47;;;;;;;25.13;11.23;;;;;;;8.28;100.00;99693.63;6088643;19;20317;-74
2024/03/10 09:15:52;;;;;;;26.08;11.57;;;;;;;8.28;100.00;99693.63;6090671;19;20015;-74
2024/03/10 09:18:00;;;;;;;21.58;11.77;;;;;;;8.26;100.00;99690.22;6085982;19;20010;-75
2024/03/10 09:20:11;;;;;;;24.52;10.80;;;;;;;8.25;100.00;99692.94;6088851;19;20035;-74
2024/03/10 09:22:20;;;;;;;21.83;11.98;;;;;;;8.32;100.00;99684.72;6088330;19;20038;-74
2024/03/10 09:24:26;;;;;;;24.27;11.02;;;;;;;8.31;100.00;99690.84;6090492;19;20027;-77
2024/03/10 09:26:28;;;;;;;23.85;11.32;;;;;;;8.31;100.00;99697.88;6089740;19;20509;-74
2024/03/10 09:28:36;;;;;;;24.90;12.43;;;;;;;8.34;100.00;99684.63;6085171;19;20014;-74
2024/03/10 09:30:41;;;;;;;26.58;13.73;;;;;;;8.33;100.00;99678.53;6087694;19;20014;-76
2024/03/10 09:32:49;;;;;;;23.98;12.27;;;;;;;8.37;100.00;99668.75;6088343;19;20015;-76
2024/03/10 09:34:56;;;;;;;20.40;11.05;;;;;;;8.40;100.00;99668.66;6090550;19;20050;-76
2024/03/10 09:37:04;;;;;;;24.25;12.50;;;;;;;8.36;100.00;99667.91;6089983;19;20014;-77
2024/03/10 09:39:12;;;;;;;22.05;10.50;;;;;;;8.36;100.00;99675.78;6089685;19;20010;-77
2024/03/10 09:41:18;;;;;;;21.05;10.45;;;;;;;8.46;100.00;99675.34;6089382;19;20086;-76
2024/03/10 09:43:24;;;;;;;25.08;12.10;;;;;;;8.49;100.00;99675.19;6088697;19;20006;-75
2024/03/10 09:45:31;;;;;;;26.55;13.25;;;;;;;8.47;100.00;99664.78;6090718;19;20308;-76
2024/03/10 09:47:37;;;;;;;22.25;9.93;;;;;;;8.48;100.00;99663.03;6092635;19;20007;-76
2024/03/10 09:49:45;;;;;;;24.33;11.60;;;;;;;8.55;100.00;99675.72;6094701;19;20022;-76
2024/03/10 09:51:53;;;;;;;25.40;12.10;;;;;;;8.59;100.00;99671.19;6087191;19;20010;-75
2024/03/10 09:53:58;;;;;;;23.23;11.35;;;;;;;8.69;100.00;99661.94;6086353;19;20010;-77
2024/03/10 09:56:07;;;;;;;23.77;11.77;;;;;;;8.77;100.00;99670.25;6086063;19;20018;-77
2024/03/10 09:58:15;;;;;;;22.48;10.43;;;;;;;8.84;100.00;99675.16;6091568;19;20006;-79
2024/03/10 10:00:34;;;;;;;23.08;11.45;;;;;;;8.87;100.00;99673.22;6089650;19;20034;-75
2024/03/10 10:02:42;;;;;;;23.55;11.07;;;;;;;8.92;100.00;99676.44;6087310;19;20007;-75